Time;durP1;ratioP1;P1;durP2;ratioP2;P2;SDS_P1;SDS_P2;PMS_P1;PMS_P2;Temp;Humidity;BMP_temperature;BMP_pressure;BME280_temperature;BME280_humidity;BME280_pressure;Samples;Min_cycle;Max_cycle;Signal;HPM_P1;HPM_P2
2022/11/17 00:01:47;;;;;;;;;;;17.20;55.80;;;;;;5094576;28;20385;-71
2022/11/17 00:04:12;;;;;;;;;;;17.20;55.80;;;;;;5076801;28;20240;-71
2022/11/17 00:06:38;;;;;;;;;;;17.10;55.80;;;;;;5076682;28;20390;-71
2022/11/17 00:09:03;;;;;;;;;;;17.20;55.80;;;;;;5076431;28;20499;-71
2022/11/17 00:14:31;;;;;;;;;;;17.10;55.80;;;;;;5076682;28;19920;-71
2022/11/17 00:14:45;;;;;;;;;;;17.20;55.80;;;;;;5075614;28;19920;-71
2022/11/17 00:17:00;;;;;;;;;;;17.10;55.80;;;;;;5093723;28;19967;-71
2022/11/17 00:22:11;;;;;;;;;;;17.10;55.90;;;;;;5094157;28;20014;-70
2022/11/17 00:24:37;;;;;;;;;;;17.10;55.90;;;;;;5094183;28;20421;-72
2022/11/17 00:27:02;;;;;;;;;;;17.10;55.90;;;;;;5075838;28;19920;-70
2022/11/17 00:29:28;;;;;;;;;;;17.10;55.90;;;;;;5076229;28;19920;-71
2022/11/17 00:34:40;;;;;;;;;;;17.10;56.00;;;;;;5075708;28;19966;-71
2022/11/17 00:37:06;;;;;;;;;;;17.10;56.00;;;;;;5075458;28;20340;-71
2022/11/17 00:39:31;;;;;;;;;;;17.00;56.00;;;;;;5093679;28;19927;-71
2022/11/17 00:41:57;;;;;;;;;;;17.00;56.00;;;;;;5075965;28;19930;-71
2022/11/17 00:44:23;;;;;;;;;;;17.00;56.10;;;;;;5094041;28;19920;-72
2022/11/17 00:46:49;;;;;;;;;;;17.00;56.10;;;;;;5092618;28;20019;-71
2022/11/17 00:49:14;;;;;;;;;;;17.00;56.10;;;;;;5093541;28;20085;-71
2022/11/17 00:51:40;;;;;;;;;;;17.00;56.10;;;;;;5093815;28;19963;-71
2022/11/17 00:54:06;;;;;;;;;;;17.00;56.10;;;;;;5075195;28;19927;-71
2022/11/17 00:56:32;;;;;;;;;;;17.00;56.20;;;;;;5093282;28;19924;-71
2022/11/17 00:58:58;;;;;;;;;;;17.00;56.20;;;;;;5075687;28;19931;-71
2022/11/17 01:01:23;;;;;;;;;;;17.00;56.20;;;;;;5075016;28;20123;-71
2022/11/17 01:03:49;;;;;;;;;;;17.00;56.20;;;;;;5075821;28;19920;-71
2022/11/17 01:06:17;;;;;;;;;;;17.00;56.20;;;;;;5074831;28;20010;-72
2022/11/17 01:08:43;;;;;;;;;;;17.00;56.20;;;;;;5075198;28;19927;-72
2022/11/17 01:11:13;;;;;;;;;;;17.00;56.20;;;;;;5092466;28;19920;-71
2022/11/17 01:13:39;;;;;;;;;;;17.00;56.20;;;;;;5058223;28;19960;-71
2022/11/17 01:16:06;;;;;;;;;;;17.00;56.20;;;;;;5074605;28;19967;-72
2022/11/17 01:18:32;;;;;;;;;;;16.90;56.90;;;;;;5092864;28;19967;-71
2022/11/17 01:21:07;;;;;;;;;;;16.90;56.20;;;;;;5092963;28;19968;-72
2022/11/17 01:23:33;;;;;;;;;;;16.90;56.20;;;;;;5093164;28;19922;-71
2022/11/17 01:26:03;;;;;;;;;;;16.90;56.20;;;;;;5075145;28;19926;-71
2022/11/17 01:28:28;;;;;;;;;;;16.90;56.30;;;;;;5092754;28;19924;-71
2022/11/17 01:31:02;;;;;;;;;;;16.90;56.30;;;;;;5074784;28;20390;-71
2022/11/17 01:33:28;;;;;;;;;;;16.90;56.30;;;;;;5074715;28;19938;-72
2022/11/17 01:35:53;;;;;;;;;;;16.90;56.30;;;;;;5074297;28;19924;-71
2022/11/17 01:38:19;;;;;;;;;;;16.90;56.40;;;;;;5092481;28;19924;-73
2022/11/17 01:40:44;;;;;;;;;;;17.20;56.00;;;;;;5092685;28;20015;-71
2022/11/17 01:43:10;;;;;;;;;;;17.80;55.10;;;;;;5074725;28;20084;-71
2022/11/17 01:45:36;;;;;;;;;;;18.20;54.00;;;;;;5092744;28;19920;-72
2022/11/17 01:48:03;;;;;;;;;;;18.60;52.90;;;;;;5092619;28;19920;-71
2022/11/17 01:50:32;;;;;;;;;;;19.20;51.80;;;;;;5074436;28;20179;-71
2022/11/17 01:52:58;;;;;;;;;;;19.90;50.50;;;;;;5074213;28;19928;-71
2022/11/17 01:55:26;;;;;;;;;;;20.50;48.80;;;;;;5074431;28;20329;-71
2022/11/17 01:57:55;;;;;;;;;;;21.20;47.50;;;;;;5073982;28;19925;-71
2022/11/17 02:00:20;;;;;;;;;;;21.80;46.20;;;;;;5074326;28;20010;-72
2022/11/17 02:02:46;;;;;;;;;;;22.20;45.20;;;;;;5074810;28;20019;-71
2022/11/17 02:08:02;;;;;;;;;;;23.00;43.70;;;;;;5079020;27;2064681;-71
2022/11/17 02:10:29;;;;;;;;;;;23.30;43.00;;;;;;5132226;27;19919;-70
2022/11/17 02:12:54;;;;;;;;;;;23.50;42.50;;;;;;5150743;27;20213;-71
2022/11/17 02:15:20;;;;;;;;;;;23.70;42.20;;;;;;5131792;27;20350;-72
2022/11/17 02:17:46;;;;;;;;;;;23.90;42.00;;;;;;5131945;27;19930;-71
2022/11/17 02:20:18;;;;;;;;;;;24.00;41.60;;;;;;5132246;27;19919;-71
2022/11/17 02:25:35;;;;;;;;;;;24.30;41.10;;;;;;5113030;27;1856954;-71
2022/11/17 02:28:20;;;;;;;;;;;24.40;40.80;;;;;;5153333;27;19925;-71
2022/11/17 02:30:52;;;;;;;;;;;24.50;40.80;;;;;;5153215;27;19923;-71
2022/11/17 02:33:24;;;;;;;;;;;24.50;40.70;;;;;;5153015;27;19919;-71
2022/11/17 02:38:35;;;;;;;;;;;24.60;40.50;;;;;;5089372;28;19919;-72
2022/11/17 02:44:15;;;;;;;;;;;24.60;40.40;;;;;;5127543;27;1862779;-71
2022/11/17 02:46:37;;;;;;;;;;;24.60;40.50;;;;;;5174401;27;19919;-72
2022/11/17 02:49:06;;;;;;;;;;;24.60;40.50;;;;;;5174650;27;19922;-71
2022/11/17 02:51:33;;;;;;;;;;;24.60;40.30;;;;;;5174073;27;19919;-71
2022/11/17 02:53:59;;;;;;;;;;;24.60;40.30;;;;;;5171806;27;20137;-71
2022/11/17 02:56:25;;;;;;;;;;;24.60;40.40;;;;;;5152754;27;19923;-71
2022/11/17 02:58:53;;;;;;;;;;;24.60;40.40;;;;;;5152876;27;20313;-71
2022/11/17 03:04:18;;;;;;;;;;;24.50;40.50;;;;;;5110179;27;19912;-71
2022/11/17 03:12:33;;;;;;;;;;;24.40;40.50;;;;;;5108960;27;19940;-72
2022/11/17 03:15:11;;;;;;;;;;;24.40;40.70;;;;;;5107820;28;19963;-72
2022/11/17 03:20:23;;;;;;;;;;;24.20;40.70;;;;;;5089440;28;19938;-71
2022/11/17 03:22:51;;;;;;;;;;;24.20;40.80;;;;;;5088426;28;19959;-73
2022/11/17 03:25:19;;;;;;;;;;;24.20;40.80;;;;;;5088694;28;19921;-71
2022/11/17 03:27:47;;;;;;;;;;;24.20;40.90;;;;;;5088616;28;19970;-71
2022/11/17 03:30:13;;;;;;;;;;;24.20;41.00;;;;;;5088130;28;19924;-71
2022/11/17 03:32:40;;;;;;;;;;;24.10;41.00;;;;;;5088166;28;19926;-72
2022/11/17 03:35:08;;;;;;;;;;;24.10;41.10;;;;;;5087261;28;19924;-71
2022/11/17 03:37:35;;;;;;;;;;;24.00;41.10;;;;;;5089136;28;19920;-71
2022/11/17 03:40:03;;;;;;;;;;;24.00;41.10;;;;;;5087544;28;19928;-74
2022/11/17 03:42:30;;;;;;;;;;;24.00;41.10;;;;;;5087960;28;19920;-71
2022/11/17 03:45:00;;;;;;;;;;;24.00;41.10;;;;;;5088400;28;19927;-71
2022/11/17 03:47:27;;;;;;;;;;;24.00;41.20;;;;;;5087947;28;19920;-73
2022/11/17 03:49:56;;;;;;;;;;;24.00;41.20;;;;;;5087847;28;19920;-71
2022/11/17 03:52:23;;;;;;;;;;;24.00;41.20;;;;;;5088802;28;19924;-71
2022/11/17 03:54:50;;;;;;;;;;;23.90;41.20;;;;;;5087153;28;19927;-72
2022/11/17 04:00:04;;;;;;;;;;;23.90;41.20;;;;;;5109895;27;20100;-71
2022/11/17 04:02:29;;;;;;;;;;;23.90;41.20;;;;;;5107998;28;19920;-74
2022/11/17 04:05:10;;;;;;;;;;;24.00;41.30;;;;;;5108633;28;19945;-72
2022/11/17 04:07:39;;;;;;;;;;;23.90;41.30;;;;;;5109902;28;19920;-72
2022/11/17 04:10:05;;;;;;;;;;;23.80;41.40;;;;;;5108831;28;19927;-71
2022/11/17 04:16:00;;;;;;;;;;;23.70;41.50;;;;;;5107497;28;20371;-71
2022/11/17 04:18:02;;;;;;;;;;;23.70;41.60;;;;;;5107551;28;20011;-71
2022/11/17 04:20:34;;;;;;;;;;;23.70;41.60;;;;;;5109268;28;20364;-71
2022/11/17 04:23:10;;;;;;;;;;;23.70;41.60;;;;;;5108621;28;20394;-71
2022/11/17 04:28:38;;;;;;;;;;;23.70;41.60;;;;;;5109283;28;19955;-73
2022/11/17 04:31:06;;;;;;;;;;;23.70;41.60;;;;;;5107991;28;19920;-71
2022/11/17 04:33:31;;;;;;;;;;;23.70;41.60;;;;;;5107846;28;19923;-71
2022/11/17 04:35:57;;;;;;;;;;;23.80;41.60;;;;;;5107308;28;20022;-71
2022/11/17 04:38:23;;;;;;;;;;;24.00;41.60;;;;;;5107310;28;19973;-71
2022/11/17 04:43:33;;;;;;;;;;;23.80;41.40;;;;;;5107991;28;19920;-71
2022/11/17 04:45:59;;;;;;;;;;;23.90;41.40;;;;;;5108281;28;20406;-71
2022/11/17 04:48:26;;;;;;;;;;;23.80;41.30;;;;;;5107820;28;19920;-71
2022/11/17 04:50:52;;;;;;;;;;;23.80;41.30;;;;;;5107589;28;19924;-71
2022/11/17 04:53:17;;;;;;;;;;;23.80;41.30;;;;;;5107606;28;19920;-72
2022/11/17 04:55:43;;;;;;;;;;;23.80;41.30;;;;;;5108364;28;20286;-71
2022/11/17 04:58:08;;;;;;;;;;;23.80;41.20;;;;;;5109980;28;20426;-72
2022/11/17 05:00:34;;;;;;;;;;;23.80;41.30;;;;;;5128917;28;19920;-72
2022/11/17 05:02:59;;;;;;;;;;;23.80;41.40;;;;;;5111338;28;19920;-72
2022/11/17 05:05:25;;;;;;;;;;;23.70;41.40;;;;;;5110849;28;20272;-72
2022/11/17 05:07:50;;;;;;;;;;;23.70;41.40;;;;;;5110878;28;19981;-71
2022/11/17 05:13:20;;;;;;;;;;;23.70;41.50;;;;;;5121649;27;19927;-72
2022/11/17 05:13:32;;;;;;;;;;;23.70;41.50;;;;;;5096883;28;19919;-72
2022/11/17 05:18:33;;;;;;;;;;;23.70;41.50;;;;;;5096065;28;19924;-71
2022/11/17 05:21:01;;;;;;;;;;;23.70;41.40;;;;;;5115266;28;20267;-71
2022/11/17 05:23:57;;;;;;;;;;;23.70;41.40;;;;;;5097480;28;19920;-71
2022/11/17 05:26:12;;;;;;;;;;;23.70;41.40;;;;;;5115256;28;20367;-71
2022/11/17 05:28:37;;;;;;;;;;;23.70;41.20;;;;;;5096957;28;19927;-72
2022/11/17 05:31:03;;;;;;;;;;;23.70;41.20;;;;;;5114918;28;19927;-72
2022/11/17 05:33:28;;;;;;;;;;;23.70;41.10;;;;;;5096586;28;19977;-71
2022/11/17 05:35:54;;;;;;;;;;;23.70;41.10;;;;;;5096296;28;20010;-71
2022/11/17 05:38:19;;;;;;;;;;;23.70;41.10;;;;;;5096349;28;19928;-71
2022/11/17 05:40:45;;;;;;;;;;;23.70;41.10;;;;;;5096200;28;19920;-71
2022/11/17 05:43:10;;;;;;;;;;;23.70;41.10;;;;;;5115070;28;19931;-71
2022/11/17 05:45:36;;;;;;;;;;;23.70;41.10;;;;;;5097081;28;20272;-71
2022/11/17 05:48:01;;;;;;;;;;;23.70;41.00;;;;;;5096827;28;20394;-72
2022/11/17 05:50:27;;;;;;;;;;;23.60;41.00;;;;;;5114888;28;19927;-71
2022/11/17 05:52:52;;;;;;;;;;;23.60;41.00;;;;;;5114701;28;20227;-71
2022/11/17 05:55:18;;;;;;;;;;;23.60;41.00;;;;;;5095643;28;20391;-72
2022/11/17 05:57:43;;;;;;;;;;;23.50;41.00;;;;;;5114035;28;19920;-71
2022/11/17 06:00:09;;;;;;;;;;;23.50;41.00;;;;;;5113922;28;19923;-72
2022/11/17 06:02:41;;;;;;;;;;;23.50;41.10;;;;;;5096203;28;19972;-72
2022/11/17 06:05:08;;;;;;;;;;;23.40;41.10;;;;;;5096492;28;19920;-72
2022/11/17 06:07:34;;;;;;;;;;;23.40;41.10;;;;;;5114460;28;20379;-72
2022/11/17 06:10:00;;;;;;;;;;;23.40;41.10;;;;;;5114616;28;19926;-71
2022/11/17 06:12:25;;;;;;;;;;;23.40;41.10;;;;;;5113929;28;20011;-72
2022/11/17 06:14:51;;;;;;;;;;;23.40;41.00;;;;;;5095671;28;19969;-72
2022/11/17 06:17:20;;;;;;;;;;;23.40;41.00;;;;;;5095376;28;19920;-71
2022/11/17 06:19:47;;;;;;;;;;;23.50;41.00;;;;;;5095383;28;19924;-72
2022/11/17 06:22:13;;;;;;;;;;;23.40;40.90;;;;;;5113104;28;19919;-71
2022/11/17 06:24:39;;;;;;;;;;;23.40;40.90;;;;;;5079032;28;19924;-72
2022/11/17 06:27:05;;;;;;;;;;;23.40;41.00;;;;;;5096284;28;19920;-71
2022/11/17 06:29:31;;;;;;;;;;;23.40;41.00;;;;;;5095787;28;20345;-73
2022/11/17 06:31:57;;;;;;;;;;;23.40;41.00;;;;;;5095509;28;20007;-71
2022/11/17 06:34:23;;;;;;;;;;;23.40;41.00;;;;;;5095332;28;19931;-71
2022/11/17 06:36:49;;;;;;;;;;;23.40;41.00;;;;;;5095090;28;20402;-72
2022/11/17 06:39:14;;;;;;;;;;;23.50;40.80;;;;;;5093978;28;19924;-66
2022/11/17 06:41:40;;;;;;;;;;;23.40;40.70;;;;;;5094246;28;19932;-67
2022/11/17 06:44:05;;;;;;;;;;;23.50;41.00;;;;;;5094175;28;19920;-69
2022/11/17 06:46:36;;;;;;;;;;;23.50;41.00;;;;;;5092975;28;20007;-66
2022/11/17 06:49:04;;;;;;;;;;;23.50;41.00;;;;;;5111894;28;20014;-66
2022/11/17 06:51:29;;;;;;;;;;;23.50;40.90;;;;;;5093121;28;19926;-66
2022/11/17 06:53:55;;;;;;;;;;;23.50;41.10;;;;;;5087747;28;19928;-67
2022/11/17 06:56:20;;;;;;;;;;;23.60;41.30;;;;;;5105879;28;20230;-67
2022/11/17 06:58:46;;;;;;;;;;;23.80;41.20;;;;;;5079206;28;20399;-67
2022/11/17 07:01:13;;;;;;;;;;;23.90;40.80;;;;;;5103068;28;19919;-67
2022/11/17 07:03:39;;;;;;;;;;;24.10;40.70;;;;;;5075622;28;20014;-66
2022/11/17 07:06:06;;;;;;;;;;;24.20;40.30;;;;;;5077551;28;19998;-67
2022/11/17 07:08:32;;;;;;;;;;;24.30;40.10;;;;;;5100482;28;19927;-66
2022/11/17 07:11:02;;;;;;;;;;;24.50;40.00;;;;;;5078544;28;19928;-65
2022/11/17 07:13:28;;;;;;;;;;;24.40;39.90;;;;;;5082514;28;19926;-67
2022/11/17 07:15:54;;;;;;;;;;;24.40;39.90;;;;;;5099262;28;20487;-67
2022/11/17 07:18:20;;;;;;;;;;;24.50;39.60;;;;;;5101607;28;19928;-67
2022/11/17 07:20:46;;;;;;;;;;;24.40;39.70;;;;;;5084479;28;20014;-66
2022/11/17 07:23:12;;;;;;;;;;;24.50;39.60;;;;;;5099697;28;19928;-67
2022/11/17 07:25:37;;;;;;;;;;;24.50;39.60;;;;;;5090650;28;19931;-66
2022/11/17 07:28:03;;;;;;;;;;;24.50;39.60;;;;;;5078600;28;19927;-64
2022/11/17 07:30:28;;;;;;;;;;;24.40;39.60;;;;;;5075707;28;19924;-66
2022/11/17 07:32:54;;;;;;;;;;;24.40;39.60;;;;;;5075232;28;20268;-65
2022/11/17 07:35:19;;;;;;;;;;;24.30;39.70;;;;;;5080593;28;20012;-66
2022/11/17 07:37:45;;;;;;;;;;;24.30;40.00;;;;;;5067462;28;19928;-66
2022/11/17 07:40:11;;;;;;;;;;;24.30;40.10;;;;;;5090204;28;19978;-66
2022/11/17 07:42:36;;;;;;;;;;;24.20;40.30;;;;;;5090887;28;19927;-64
2022/11/17 07:45:02;;;;;;;;;;;24.10;40.70;;;;;;5076428;28;19924;-65
2022/11/17 07:47:27;;;;;;;;;;;24.10;41.00;;;;;;5077684;28;20011;-66
2022/11/17 07:49:53;;;;;;;;;;;24.00;41.10;;;;;;5090749;28;20429;-66
2022/11/17 07:52:18;;;;;;;;;;;23.90;41.00;;;;;;5071487;28;19920;-65
2022/11/17 07:54:44;;;;;;;;;;;23.90;41.10;;;;;;5091919;28;19924;-65
2022/11/17 07:57:09;;;;;;;;;;;23.90;41.00;;;;;;5108032;28;19972;-65
2022/11/17 07:59:35;;;;;;;;;;;23.90;41.10;;;;;;5103325;28;19932;-66
2022/11/17 08:02:00;;;;;;;;;;;23.80;41.10;;;;;;5089683;28;19936;-66
2022/11/17 08:04:26;;;;;;;;;;;23.80;41.00;;;;;;5073201;28;19930;-65
2022/11/17 08:06:51;;;;;;;;;;;23.80;40.90;;;;;;5073584;28;20236;-65
2022/11/17 08:09:17;;;;;;;;;;;23.80;40.90;;;;;;5091364;28;19931;-66
2022/11/17 08:11:43;;;;;;;;;;;23.80;40.90;;;;;;5076618;28;19930;-65
2022/11/17 08:14:09;;;;;;;;;;;23.90;41.00;;;;;;5075570;28;19923;-66
2022/11/17 08:16:35;;;;;;;;;;;23.90;41.10;;;;;;5104599;28;19939;-66
2022/11/17 08:19:00;;;;;;;;;;;23.90;40.90;;;;;;5093073;28;19932;-66
2022/11/17 08:21:26;;;;;;;;;;;23.90;40.70;;;;;;5073657;28;19924;-67
2022/11/17 08:23:53;;;;;;;;;;;23.90;40.80;;;;;;5061702;28;20433;-72
2022/11/17 08:26:19;;;;;;;;;;;24.00;40.80;;;;;;5069149;28;19935;-76
2022/11/17 08:28:45;;;;;;;;;;;23.00;40.30;;;;;;5104517;28;19924;-79
2022/11/17 08:31:11;;;;;;;;;;;24.10;40.70;;;;;;5072011;28;19953;-72
2022/11/17 08:33:36;;;;;;;;;;;24.20;40.50;;;;;;5072792;28;19934;-74
2022/11/17 08:36:03;;;;;;;;;;;22.30;39.30;;;;;;5087204;28;20280;-86
2022/11/17 08:38:28;;;;;;;;;;;24.30;40.30;;;;;;5089331;28;19931;-76
2022/11/17 08:40:56;;;;;;;;;;;24.30;40.30;;;;;;5075069;28;19924;-71
2022/11/17 08:43:21;;;;;;;;;;;24.10;40.40;;;;;;5088534;28;19928;-79
2022/11/17 08:45:47;;;;;;;;;;;24.00;40.70;;;;;;5091355;28;20656;-81
2022/11/17 08:48:12;;;;;;;;;;;23.70;40.90;;;;;;5076983;28;20413;-80
2022/11/17 08:50:38;;;;;;;;;;;24.40;41.60;;;;;;5074500;28;19949;-75
2022/11/17 08:53:03;;;;;;;;;;;23.50;41.40;;;;;;5073621;28;20371;-73
2022/11/17 08:55:29;;;;;;;;;;;21.70;40.70;;;;;;5094108;28;19991;-72
2022/11/17 08:57:54;;;;;;;;;;;23.30;41.80;;;;;;5096230;28;19950;-76
2022/11/17 09:00:20;;;;;;;;;;;23.20;42.10;;;;;;5073231;28;20389;-71
2022/11/17 09:02:46;;;;;;;;;;;23.10;42.10;;;;;;5075749;28;20011;-80
2022/11/17 09:05:11;;;;;;;;;;;23.20;42.40;;;;;;5076682;28;19928;-79
2022/11/17 09:07:37;;;;;;;;;;;23.10;42.40;;;;;;5068180;28;19965;-78
2022/11/17 09:10:03;;;;;;;;;;;23.10;42.30;;;;;;5087174;28;19924;-71
2022/11/17 09:12:29;;;;;;;;;;;23.10;42.20;;;;;;5107388;27;19936;-74
2022/11/17 09:14:55;;;;;;;;;;;23.20;42.30;;;;;;5087497;28;19942;-73
2022/11/17 09:17:20;;;;;;;;;;;23.20;42.30;;;;;;5072915;28;19928;-74
2022/11/17 09:19:46;;;;;;;;;;;23.20;42.40;;;;;;5077393;28;20034;-76
2022/11/17 09:22:11;;;;;;;;;;;23.30;42.40;;;;;;5078725;28;19920;-71
2022/11/17 09:24:37;;;;;;;;;;;23.30;42.30;;;;;;5092236;28;19931;-77
2022/11/17 09:27:02;;;;;;;;;;;23.40;42.30;;;;;;5079393;28;19930;-77
2022/11/17 09:29:29;;;;;;;;;;;23.40;42.30;;;;;;5077334;28;19927;-73
2022/11/17 09:31:54;;;;;;;;;;;23.40;42.30;;;;;;5110582;27;20597;-73
2022/11/17 09:34:20;;;;;;;;;;;23.50;42.30;;;;;;5075136;28;20057;-78
2022/11/17 09:36:47;;;;;;;;;;;23.50;42.30;;;;;;5106371;27;19970;-72
2022/11/17 09:39:13;;;;;;;;;;;23.60;42.90;;;;;;5073455;28;20695;-79
2022/11/17 09:41:47;;;;;;;;;;;23.70;42.00;;;;;;5104546;27;20571;-75
2022/11/17 09:44:21;;;;;;;;;;;23.60;41.90;;;;;;5075016;28;19934;-72
2022/11/17 09:49:38;;;;;;;;;;;23.50;42.00;;;;;;5108532;27;19920;-68
2022/11/17 09:52:12;;;;;;;;;;;23.50;42.30;;;;;;5130481;27;19928;-70
2022/11/17 09:54:57;;;;;;;;;;;23.50;42.30;;;;;;5098074;28;19928;-70
2022/11/17 10:00:06;;;;;;;;;;;23.40;42.60;;;;;;5060963;28;20352;-68
2022/11/17 10:02:32;;;;;;;;;;;23.40;42.70;;;;;;5072801;28;19925;-69
2022/11/17 10:04:58;;;;;;;;;;;23.40;42.80;;;;;;5055806;28;20269;-67
2022/11/17 10:07:24;;;;;;;;;;;23.40;42.90;;;;;;5070272;28;19940;-68
2022/11/17 10:09:50;;;;;;;;;;;23.40;42.90;;;;;;5057398;28;19928;-71
2022/11/17 10:12:19;;;;;;;;;;;23.40;43.00;;;;;;5053117;28;19983;-80
2022/11/17 10:14:45;;;;;;;;;;;23.30;43.10;;;;;;5050231;28;19925;-73
2022/11/17 10:17:11;;;;;;;;;;;23.40;43.20;;;;;;5069268;28;19924;-71
2022/11/17 10:19:37;;;;;;;;;;;23.30;43.10;;;;;;5054951;28;19931;-73
2022/11/17 10:24:42;;;;;;;;;;;23.30;43.20;;;;;;5108294;27;1869306;-71
2022/11/17 10:27:27;;;;;;;;;;;23.30;43.20;;;;;;5144938;27;20516;-73
2022/11/17 10:29:57;;;;;;;;;;;23.30;43.30;;;;;;5142738;27;20390;-71
2022/11/17 10:32:22;;;;;;;;;;;23.20;43.30;;;;;;5135757;27;20373;-78
2022/11/17 10:34:48;;;;;;;;;;;23.30;43.40;;;;;;5134208;27;19955;-72
2022/11/17 10:40:08;;;;;;;;;;;23.30;43.60;;;;;;5057225;27;19946;-73
2022/11/17 10:42:33;;;;;;;;;;;23.40;43.70;;;;;;5053816;28;19927;-74
2022/11/17 10:44:59;;;;;;;;;;;23.40;44.00;;;;;;5054728;28;19928;-74
2022/11/17 10:47:27;;;;;;;;;;;23.20;44.10;;;;;;5070267;28;19924;-73
2022/11/17 10:50:12;;;;;;;;;;;23.40;44.40;;;;;;5056769;28;19920;-75
2022/11/17 10:52:38;;;;;;;;;;;23.40;44.30;;;;;;5056551;28;20011;-75
2022/11/17 10:55:23;;;;;;;;;;;23.30;44.30;;;;;;5063500;28;20026;-76
2022/11/17 10:57:52;;;;;;;;;;;23.40;44.30;;;;;;5067971;28;20405;-77
2022/11/17 11:00:23;;;;;;;;;;;22.70;44.00;;;;;;5059273;28;19932;-73
2022/11/17 11:02:48;;;;;;;;;;;23.40;44.30;;;;;;5052978;28;19936;-76
2022/11/17 11:05:16;;;;;;;;;;;23.40;44.50;;;;;;5065092;28;19928;-70
2022/11/17 11:07:42;;;;;;;;;;;23.40;44.60;;;;;;5052444;28;19924;-81
2022/11/17 11:10:13;;;;;;;;;;;23.40;44.70;;;;;;5048306;28;19921;-79
2022/11/17 11:12:58;;;;;;;;;;;23.40;44.80;;;;;;5053416;28;19969;-73
2022/11/17 11:15:27;;;;;;;;;;;23.40;45.00;;;;;;5055168;28;19952;-75
2022/11/17 11:17:53;;;;;;;;;;;23.40;45.10;;;;;;5055541;28;19982;-71
2022/11/17 11:20:20;;;;;;;;;;;23.30;45.20;;;;;;5051385;28;19921;-77
2022/11/17 11:25:48;;;;;;;;;;;23.30;45.60;;;;;;5078490;27;20299;-71
2022/11/17 11:28:33;;;;;;;;;;;21.60;44.70;;;;;;5038025;28;20447;-69
2022/11/17 11:33:48;;;;;;;;;;;23.10;46.00;;;;;;5080055;27;19921;-72
2022/11/17 11:36:20;;;;;;;;;;;23.10;46.30;;;;;;5049967;28;20390;-74
2022/11/17 11:38:54;;;;;;;;;;;23.00;47.00;;;;;;5084204;28;19921;-77
2022/11/17 11:41:39;;;;;;;;;;;21.70;46.60;;;;;;5049703;28;19937;-72
2022/11/17 11:49:45;;;;;;;;;;;23.20;47.00;;;;;;5048183;28;19936;-74
2022/11/17 11:52:16;;;;;;;;;;;23.40;47.00;;;;;;5047112;28;19979;-76
2022/11/17 11:54:44;;;;;;;;;;;23.40;46.80;;;;;;5051335;28;20794;-78
2022/11/17 11:57:14;;;;;;;;;;;23.50;46.80;;;;;;5050026;28;19931;-77
2022/11/17 11:59:46;;;;;;;;;;;23.50;46.60;;;;;;5045312;28;19946;-77
2022/11/17 12:10:20;;;;;;;;;;;23.50;46.60;;;;;;5105063;27;1891463;-77
2022/11/17 12:12:46;;;;;;;;;;;23.50;46.60;;;;;;5155391;27;20013;-75
2022/11/17 12:26:04;;;;;;;;;;;23.60;46.80;;;;;;5071241;27;19917;-68
2022/11/17 12:28:34;;;;;;;;;;;23.60;46.90;;;;;;5067179;28;19931;-70
2022/11/17 12:31:04;;;;;;;;;;;23.60;47.00;;;;;;5051337;28;19950;-64
2022/11/17 12:33:49;;;;;;;;;;;23.50;47.10;;;;;;5066102;28;20006;-64
2022/11/17 12:39:00;;;;;;;;;;;23.50;47.30;;;;;;5155113;27;20317;-77
2022/11/17 12:41:45;;;;;;;;;;;23.50;47.40;;;;;;5130044;27;19924;-82
2022/11/17 12:44:30;;;;;;;;;;;23.60;47.30;;;;;;5134728;27;19929;-70
2022/11/17 12:47:08;;;;;;;;;;;23.50;47.50;;;;;;5130401;27;20499;-68
2022/11/17 12:49:42;;;;;;;;;;;23.50;47.60;;;;;;5140270;27;19944;-69
2022/11/17 12:52:12;;;;;;;;;;;23.60;47.90;;;;;;5145547;27;19923;-72
2022/11/17 12:54:44;;;;;;;;;;;23.30;48.00;;;;;;5120794;27;19927;-68
2022/11/17 12:57:11;;;;;;;;;;;23.10;48.40;;;;;;5108281;27;19977;-69
2022/11/17 12:59:57;;;;;;;;;;;22.90;48.90;;;;;;5134637;27;19919;-70
2022/11/17 13:05:06;;;;;;;;;;;22.70;49.60;;;;;;5085255;27;1899948;-72
2022/11/17 13:07:32;;;;;;;;;;;22.70;49.80;;;;;;5129659;27;19929;-73
2022/11/17 13:09:58;;;;;;;;;;;22.60;49.90;;;;;;5126845;27;19923;-72
2022/11/17 13:12:25;;;;;;;;;;;22.60;50.10;;;;;;5144174;27;19923;-73
2022/11/17 13:14:53;;;;;;;;;;;22.50;50.30;;;;;;5130953;27;19932;-72
2022/11/17 13:17:20;;;;;;;;;;;22.50;50.50;;;;;;5131369;27;19953;-75
2022/11/17 13:19:46;;;;;;;;;;;22.50;50.60;;;;;;5148167;27;20011;-76
2022/11/17 13:24:52;;;;;;;;;;;22.40;50.90;;;;;;5087618;27;1878422;-77
2022/11/17 13:27:26;;;;;;;;;;;22.40;51.10;;;;;;5128534;27;20300;-81
2022/11/17 13:30:10;;;;;;;;;;;22.30;51.10;;;;;;5114880;27;19923;-82
2022/11/17 13:32:37;;;;;;;;;;;22.80;51.50;;;;;;5107304;27;20446;-78
2022/11/17 13:35:16;;;;;;;;;;;22.20;51.20;;;;;;5109578;27;20481;-81
2022/11/17 13:37:41;;;;;;;;;;;22.20;51.30;;;;;;5121701;27;20002;-77
2022/11/17 13:40:23;;;;;;;;;;;22.20;51.30;;;;;;5118961;27;20014;-76
2022/11/17 13:42:48;;;;;;;;;;;22.20;51.50;;;;;;5114140;27;19969;-77
2022/11/17 13:45:14;;;;;;;;;;;22.10;51.50;;;;;;5122278;27;20021;-73
2022/11/17 13:47:48;;;;;;;;;;;22.00;51.60;;;;;;5123543;27;19931;-73
2022/11/17 13:55:50;;;;;;;;;;;21.90;52.20;;;;;;5067512;27;20396;-72
2022/11/17 13:58:20;;;;;;;;;;;21.80;52.20;;;;;;5064922;28;19928;-74
2022/11/17 14:00:54;;;;;;;;;;;21.80;52.40;;;;;;5053834;28;20028;-77
2022/11/17 14:03:40;;;;;;;;;;;21.80;52.50;;;;;;5069097;28;19924;-74
2022/11/17 14:06:07;;;;;;;;;;;21.80;52.60;;;;;;5063933;28;19931;-82
2022/11/17 14:08:33;;;;;;;;;;;21.80;52.80;;;;;;5093202;28;20030;-77
2022/11/17 14:11:06;;;;;;;;;;;21.80;52.90;;;;;;5055427;28;19928;-73
2022/11/17 14:13:37;;;;;;;;;;;21.80;53.10;;;;;;5068717;28;20513;-79
2022/11/17 14:16:02;;;;;;;;;;;20.50;52.50;;;;;;5052560;28;19940;-78
2022/11/17 14:23:48;;;;;;;;;;;21.90;53.10;;;;;;5105805;27;1868196;-75
2022/11/17 14:29:01;;;;;;;;;;;22.10;53.10;;;;;;5077449;28;19953;-79
2022/11/17 14:31:28;;;;;;;;;;;22.30;52.40;;;;;;5090214;28;20335;-75
2022/11/17 14:33:54;;;;;;;;;;;22.50;51.90;;;;;;5095118;28;20381;-74
2022/11/17 14:36:19;;;;;;;;;;;22.70;51.40;;;;;;5057144;28;19931;-76
2022/11/17 14:38:45;;;;;;;;;;;22.80;51.00;;;;;;5059384;28;19937;-72
2022/11/17 14:41:13;;;;;;;;;;;22.80;50.70;;;;;;5057701;28;19929;-73
2022/11/17 14:43:38;;;;;;;;;;;22.70;50.40;;;;;;5057655;28;19925;-75
2022/11/17 14:46:04;;;;;;;;;;;23.00;50.30;;;;;;5060805;28;19927;-71
2022/11/17 14:48:29;;;;;;;;;;;22.90;50.20;;;;;;5062261;28;19924;-73
2022/11/17 14:50:56;;;;;;;;;;;22.90;50.20;;;;;;5061357;28;20302;-68
2022/11/17 14:53:22;;;;;;;;;;;23.00;50.10;;;;;;5059757;28;19978;-71
2022/11/17 14:55:48;;;;;;;;;;;23.00;50.80;;;;;;5057110;28;19932;-71
2022/11/17 14:58:13;;;;;;;;;;;23.00;49.80;;;;;;5060865;28;19921;-75
2022/11/17 15:00:39;;;;;;;;;;;23.00;49.80;;;;;;5060167;28;20043;-77
2022/11/17 15:03:04;;;;;;;;;;;23.10;49.60;;;;;;5059527;28;20473;-72
2022/11/17 15:05:30;;;;;;;;;;;23.00;49.40;;;;;;5095282;28;19970;-71
2022/11/17 15:07:55;;;;;;;;;;;23.10;49.40;;;;;;5057234;28;19970;-74
2022/11/17 15:10:21;;;;;;;;;;;23.10;49.30;;;;;;5059856;28;19964;-76
2022/11/17 15:12:47;;;;;;;;;;;23.10;49.70;;;;;;5048157;28;19971;-77
2022/11/17 15:15:12;;;;;;;;;;;23.10;49.30;;;;;;5048098;28;19929;-79
2022/11/17 15:17:38;;;;;;;;;;;23.20;49.20;;;;;;5047266;28;19921;-78
2022/11/17 15:20:04;;;;;;;;;;;23.30;49.10;;;;;;5048966;28;20007;-80
2022/11/17 15:22:30;;;;;;;;;;;23.30;48.90;;;;;;5047401;28;19959;-76
2022/11/17 15:24:55;;;;;;;;;;;23.30;49.10;;;;;;5065764;28;20619;-84
2022/11/17 15:27:21;;;;;;;;;;;23.20;49.10;;;;;;5082603;28;20388;-77
2022/11/17 15:29:46;;;;;;;;;;;23.10;49.10;;;;;;5051886;28;19932;-79
2022/11/17 15:32:12;;;;;;;;;;;23.10;49.30;;;;;;5051118;28;19928;-79
2022/11/17 15:34:37;;;;;;;;;;;22.90;49.40;;;;;;5050097;28;19921;-79
2022/11/17 15:37:03;;;;;;;;;;;22.80;49.50;;;;;;5074619;28;19943;-77
2022/11/17 15:39:29;;;;;;;;;;;22.80;49.70;;;;;;5043265;28;19933;-77
2022/11/17 15:41:55;;;;;;;;;;;22.60;49.80;;;;;;5078126;28;19920;-78
2022/11/17 15:44:20;;;;;;;;;;;22.50;50.00;;;;;;5047054;28;19974;-78
2022/11/17 15:46:46;;;;;;;;;;;22.50;50.10;;;;;;5063748;28;19924;-78
2022/11/17 15:49:11;;;;;;;;;;;22.30;50.30;;;;;;5050695;28;19925;-77
2022/11/17 15:51:37;;;;;;;;;;;22.20;50.50;;;;;;5047851;28;19921;-79
2022/11/17 15:54:03;;;;;;;;;;;22.10;50.70;;;;;;5047321;28;19928;-79
2022/11/17 15:56:29;;;;;;;;;;;21.90;50.80;;;;;;5083005;28;19920;-79
2022/11/17 16:01:37;;;;;;;;;;;21.70;51.30;;;;;;5107359;27;19912;-78
2022/11/17 16:04:05;;;;;;;;;;;21.60;51.50;;;;;;5103868;28;20031;-77
2022/11/17 16:06:31;;;;;;;;;;;21.50;51.70;;;;;;5107175;28;20399;-79
2022/11/17 16:08:57;;;;;;;;;;;21.40;51.80;;;;;;5141293;27;20004;-72